sensor_id;sensor_type;location;lat;lon;timestamp;temperature;humidity
2407;DHT22;37709;53.480;9.688;2023-04-24T00:02:06;10.50;99.90
2407;DHT22;37709;53.480;9.688;2023-04-24T00:04:34;10.50;99.90
2407;DHT22;37709;53.480;9.688;2023-04-24T00:07:01;10.50;99.90
2407;DHT22;37709;53.480;9.688;2023-04-24T00:09:30;10.50;99.90
2407;DHT22;37709;53.480;9.688;2023-04-24T00:11:58;10.40;99.90
2407;DHT22;37709;53.480;9.688;2023-04-24T00:14:25;10.50;99.90
2407;DHT22;37709;53.480;9.688;2023-04-24T00:16:52;10.50;99.90
2407;DHT22;37709;53.480;9.688;2023-04-24T00:19:20;10.40;99.90
2407;DHT22;37709;53.480;9.688;2023-04-24T00:21:48;10.40;99.90
2407;DHT22;37709;53.480;9.688;2023-04-24T00:24:17;10.40;99.90
2407;DHT22;37709;53.480;9.688;2023-04-24T00:26:45;10.30;99.90
2407;DHT22;37709;53.480;9.688;2023-04-24T00:29:12;10.20;99.90
2407;DHT22;37709;53.480;9.688;2023-04-24T00:31:39;10.10;99.90
2407;DHT22;37709;53.480;9.688;2023-04-24T00:34:07;10.00;99.90
2407;DHT22;37709;53.480;9.688;2023-04-24T00:36:35;10.00;99.90
2407;DHT22;37709;53.480;9.688;2023-04-24T00:39:02;9.90;99.90
2407;DHT22;37709;53.480;9.688;2023-04-24T00:41:30;9.90;99.90
2407;DHT22;37709;53.480;9.688;2023-04-24T00:43:57;9.90;99.90
2407;DHT22;37709;53.480;9.688;2023-04-24T00:46:25;9.80;99.90
2407;DHT22;37709;53.480;9.688;2023-04-24T00:48:52;9.80;99.90
2407;DHT22;37709;53.480;9.688;2023-04-24T00:51:20;9.80;99.90
2407;DHT22;37709;53.480;9.688;2023-04-24T00:53:48;9.80;99.90
2407;DHT22;37709;53.480;9.688;2023-04-24T00:56:15;9.80;99.90
2407;DHT22;37709;53.480;9.688;2023-04-24T00:58:43;9.70;99.90
2407;DHT22;37709;53.480;9.688;2023-04-24T01:01:11;9.70;99.90
2407;DHT22;37709;53.480;9.688;2023-04-24T01:03:39;9.70;99.90
2407;DHT22;37709;53.480;9.688;2023-04-24T01:06:08;9.60;99.90
2407;DHT22;37709;53.480;9.688;2023-04-24T01:08:37;9.60;99.90
2407;DHT22;37709;53.480;9.688;2023-04-24T01:11:05;9.70;99.90
2407;DHT22;37709;53.480;9.688;2023-04-24T01:13:33;9.80;99.90
2407;DHT22;37709;53.480;9.688;2023-04-24T01:16:02;9.80;99.90
2407;DHT22;37709;53.480;9.688;2023-04-24T01:18:30;9.80;99.90
2407;DHT22;37709;53.480;9.688;2023-04-24T01:20:58;9.80;99.90
2407;DHT22;37709;53.480;9.688;2023-04-24T01:23:26;9.90;99.90
2407;DHT22;37709;53.480;9.688;2023-04-24T01:25:54;10.00;99.90
2407;DHT22;37709;53.480;9.688;2023-04-24T01:28:22;10.00;99.90
2407;DHT22;37709;53.480;9.688;2023-04-24T01:30:49;10.10;99.90
2407;DHT22;37709;53.480;9.688;2023-04-24T01:33:17;10.10;99.90
2407;DHT22;37709;53.480;9.688;2023-04-24T01:35:45;10.00;99.90
2407;DHT22;37709;53.480;9.688;2023-04-24T01:38:12;9.90;99.90
2407;DHT22;37709;53.480;9.688;2023-04-24T01:40:40;9.80;99.90
2407;DHT22;37709;53.480;9.688;2023-04-24T01:43:07;9.80;99.90
2407;DHT22;37709;53.480;9.688;2023-04-24T01:45:35;9.70;99.90
2407;DHT22;37709;53.480;9.688;2023-04-24T01:48:04;9.60;99.90
2407;DHT22;37709;53.480;9.688;2023-04-24T01:50:32;9.60;99.90
2407;DHT22;37709;53.480;9.688;2023-04-24T01:52:59;9.50;99.90
2407;DHT22;37709;53.480;9.688;2023-04-24T01:55:27;9.50;99.90
2407;DHT22;37709;53.480;9.688;2023-04-24T01:57:55;9.40;99.90
2407;DHT22;37709;53.480;9.688;2023-04-24T02:00:23;9.40;99.90
2407;DHT22;37709;53.480;9.688;2023-04-24T02:02:53;9.20;99.90
2407;DHT22;37709;53.480;9.688;2023-04-24T02:05:21;9.30;99.90
2407;DHT22;37709;53.480;9.688;2023-04-24T02:07:48;9.20;99.90
2407;DHT22;37709;53.480;9.688;2023-04-24T02:10:15;9.10;99.90
2407;DHT22;37709;53.480;9.688;2023-04-24T02:12:43;9.10;99.90
2407;DHT22;37709;53.480;9.688;2023-04-24T02:15:10;9.00;99.90
2407;DHT22;37709;53.480;9.688;2023-04-24T02:17:38;9.00;99.90
2407;DHT22;37709;53.480;9.688;2023-04-24T02:20:06;9.00;99.90
2407;DHT22;37709;53.480;9.688;2023-04-24T02:22:34;8.90;99.90
2407;DHT22;37709;53.480;9.688;2023-04-24T02:25:02;8.80;99.90
2407;DHT22;37709;53.480;9.688;2023-04-24T02:27:31;8.80;99.90
2407;DHT22;37709;53.480;9.688;2023-04-24T02:29:59;8.70;99.90
2407;DHT22;37709;53.480;9.688;2023-04-24T02:32:27;8.60;99.90
2407;DHT22;37709;53.480;9.688;2023-04-24T02:34:54;8.50;99.90
2407;DHT22;37709;53.480;9.688;2023-04-24T02:37:21;8.50;99.90
2407;DHT22;37709;53.480;9.688;2023-04-24T02:39:48;8.40;99.90
2407;DHT22;37709;53.480;9.688;2023-04-24T02:42:16;8.30;99.90
2407;DHT22;37709;53.480;9.688;2023-04-24T02:44:43;8.40;99.90
2407;DHT22;37709;53.480;9.688;2023-04-24T02:47:10;8.50;99.90
2407;DHT22;37709;53.480;9.688;2023-04-24T02:49:37;8.50;99.90
2407;DHT22;37709;53.480;9.688;2023-04-24T02:52:04;8.50;99.90
2407;DHT22;37709;53.480;9.688;2023-04-24T02:54:32;8.50;99.90
2407;DHT22;37709;53.480;9.688;2023-04-24T02:56:59;8.50;99.90
2407;DHT22;37709;53.480;9.688;2023-04-24T02:59:28;8.50;99.90
2407;DHT22;37709;53.480;9.688;2023-04-24T03:01:55;8.60;99.90
2407;DHT22;37709;53.480;9.688;2023-04-24T03:04:23;8.40;99.90
2407;DHT22;37709;53.480;9.688;2023-04-24T03:06:51;8.40;99.90
2407;DHT22;37709;53.480;9.688;2023-04-24T03:09:21;8.50;99.90
2407;DHT22;37709;53.480;9.688;2023-04-24T03:11:48;8.50;99.90
2407;DHT22;37709;53.480;9.688;2023-04-24T03:14:16;8.40;99.90
2407;DHT22;37709;53.480;9.688;2023-04-24T03:16:44;8.40;99.90
2407;DHT22;37709;53.480;9.688;2023-04-24T03:19:11;8.40;99.90
2407;DHT22;37709;53.480;9.688;2023-04-24T03:21:51;8.30;99.90
2407;DHT22;37709;53.480;9.688;2023-04-24T03:24:19;8.30;99.90
2407;DHT22;37709;53.480;9.688;2023-04-24T03:26:47;8.20;99.90
2407;DHT22;37709;53.480;9.688;2023-04-24T03:29:33;8.20;99.90
2407;DHT22;37709;53.480;9.688;2023-04-24T03:32:02;8.20;99.90
2407;DHT22;37709;53.480;9.688;2023-04-24T03:34:29;8.30;99.90
2407;DHT22;37709;53.480;9.688;2023-04-24T03:36:57;8.30;99.90
2407;DHT22;37709;53.480;9.688;2023-04-24T03:39:26;8.30;99.90
2407;DHT22;37709;53.480;9.688;2023-04-24T03:41:55;8.30;99.90
2407;DHT22;37709;53.480;9.688;2023-04-24T03:44:29;8.30;99.90
2407;DHT22;37709;53.480;9.688;2023-04-24T03:46:58;8.20;99.90
2407;DHT22;37709;53.480;9.688;2023-04-24T03:49:25;8.40;99.90
2407;DHT22;37709;53.480;9.688;2023-04-24T03:51:52;8.40;99.90
2407;DHT22;37709;53.480;9.688;2023-04-24T03:54:23;8.30;99.90
2407;DHT22;37709;53.480;9.688;2023-04-24T03:56:52;8.30;99.90
2407;DHT22;37709;53.480;9.688;2023-04-24T03:59:19;8.30;99.90
2407;DHT22;37709;53.480;9.688;2023-04-24T04:01:58;8.10;99.90
2407;DHT22;37709;53.480;9.688;2023-04-24T04:04:26;8.10;99.90
2407;DHT22;37709;53.480;9.688;2023-04-24T04:06:54;8.10;99.90
2407;DHT22;37709;53.480;9.688;2023-04-24T04:09:22;8.10;99.90
2407;DHT22;37709;53.480;9.688;2023-04-24T04:11:49;8.10;99.90
2407;DHT22;37709;53.480;9.688;2023-04-24T04:14:17;8.10;99.90
2407;DHT22;37709;53.480;9.688;2023-04-24T04:16:48;8.00;99.90
2407;DHT22;37709;53.480;9.688;2023-04-24T04:19:15;8.10;99.90
2407;DHT22;37709;53.480;9.688;2023-04-24T04:21:43;8.20;99.90
2407;DHT22;37709;53.480;9.688;2023-04-24T04:24:45;8.50;99.90
2407;DHT22;37709;53.480;9.688;2023-04-24T04:27:13;8.70;99.90
2407;DHT22;37709;53.480;9.688;2023-04-24T04:29:50;8.80;99.90
2407;DHT22;37709;53.480;9.688;2023-04-24T04:32:17;8.80;99.90
2407;DHT22;37709;53.480;9.688;2023-04-24T04:34:45;8.70;99.90
2407;DHT22;37709;53.480;9.688;2023-04-24T04:37:13;8.50;99.90
2407;DHT22;37709;53.480;9.688;2023-04-24T04:39:52;8.40;99.90
2407;DHT22;37709;53.480;9.688;2023-04-24T04:42:24;8.50;99.90
2407;DHT22;37709;53.480;9.688;2023-04-24T04:44:52;8.50;99.90
2407;DHT22;37709;53.480;9.688;2023-04-24T04:47:26;8.50;99.90
2407;DHT22;37709;53.480;9.688;2023-04-24T04:49:56;8.50;99.90
2407;DHT22;37709;53.480;9.688;2023-04-24T04:52:27;8.40;99.90
2407;DHT22;37709;53.480;9.688;2023-04-24T04:55:03;8.50;99.90
2407;DHT22;37709;53.480;9.688;2023-04-24T04:57:50;8.40;99.90
2407;DHT22;37709;53.480;9.688;2023-04-24T05:00:18;8.50;99.90
2407;DHT22;37709;53.480;9.688;2023-04-24T05:02:51;8.60;99.90
2407;DHT22;37709;53.480;9.688;2023-04-24T05:05:19;8.80;99.90
2407;DHT22;37709;53.480;9.688;2023-04-24T05:07:46;8.80;99.90
2407;DHT22;37709;53.480;9.688;2023-04-24T05:10:14;8.70;99.90
2407;DHT22;37709;53.480;9.688;2023-04-24T05:12:42;9.00;99.90
2407;DHT22;37709;53.480;9.688;2023-04-24T05:15:12;9.30;99.90
2407;DHT22;37709;53.480;9.688;2023-04-24T05:17:39;9.70;99.90
2407;DHT22;37709;53.480;9.688;2023-04-24T05:20:08;10.10;99.90
2407;DHT22;37709;53.480;9.688;2023-04-24T05:22:36;10.20;99.90
2407;DHT22;37709;53.480;9.688;2023-04-24T05:25:04;10.10;99.90
2407;DHT22;37709;53.480;9.688;2023-04-24T05:27:46;9.90;99.90
2407;DHT22;37709;53.480;9.688;2023-04-24T05:30:16;9.80;99.90
2407;DHT22;37709;53.480;9.688;2023-04-24T05:32:44;9.70;99.90
2407;DHT22;37709;53.480;9.688;2023-04-24T05:35:13;9.70;99.90
2407;DHT22;37709;53.480;9.688;2023-04-24T05:37:40;9.80;99.90
2407;DHT22;37709;53.480;9.688;2023-04-24T05:40:09;9.80;99.90
2407;DHT22;37709;53.480;9.688;2023-04-24T05:42:37;9.80;99.90
2407;DHT22;37709;53.480;9.688;2023-04-24T05:45:05;9.80;99.90
2407;DHT22;37709;53.480;9.688;2023-04-24T05:47:33;9.90;99.90
2407;DHT22;37709;53.480;9.688;2023-04-24T05:50:01;9.90;99.90
2407;DHT22;37709;53.480;9.688;2023-04-24T05:52:28;9.90;99.90
2407;DHT22;37709;53.480;9.688;2023-04-24T05:54:56;9.90;99.90
2407;DHT22;37709;53.480;9.688;2023-04-24T05:57:27;10.00;99.90
2407;DHT22;37709;53.480;9.688;2023-04-24T05:59:59;10.00;99.90
2407;DHT22;37709;53.480;9.688;2023-04-24T06:02:26;10.10;99.90
2407;DHT22;37709;53.480;9.688;2023-04-24T06:04:55;10.20;99.90
2407;DHT22;37709;53.480;9.688;2023-04-24T06:07:23;10.50;99.90
2407;DHT22;37709;53.480;9.688;2023-04-24T06:09:50;10.70;99.90
2407;DHT22;37709;53.480;9.688;2023-04-24T06:12:18;10.80;99.90
2407;DHT22;37709;53.480;9.688;2023-04-24T06:15:00;10.90;99.90
2407;DHT22;37709;53.480;9.688;2023-04-24T06:18:06;10.90;99.90
2407;DHT22;37709;53.480;9.688;2023-04-24T06:20:36;10.90;99.90
2407;DHT22;37709;53.480;9.688;2023-04-24T06:23:04;11.00;99.90
2407;DHT22;37709;53.480;9.688;2023-04-24T06:25:34;11.10;99.90
2407;DHT22;37709;53.480;9.688;2023-04-24T06:28:01;11.40;99.90
2407;DHT22;37709;53.480;9.688;2023-04-24T06:30:30;12.30;99.90
2407;DHT22;37709;53.480;9.688;2023-04-24T06:32:58;13.10;99.90
2407;DHT22;37709;53.480;9.688;2023-04-24T06:35:45;14.00;99.90
2407;DHT22;37709;53.480;9.688;2023-04-24T06:38:12;14.50;99.90
2407;DHT22;37709;53.480;9.688;2023-04-24T06:40:40;15.00;99.90
2407;DHT22;37709;53.480;9.688;2023-04-24T06:43:08;15.30;99.90
2407;DHT22;37709;53.480;9.688;2023-04-24T06:45:35;15.30;99.90
2407;DHT22;37709;53.480;9.688;2023-04-24T06:48:02;16.50;99.90
2407;DHT22;37709;53.480;9.688;2023-04-24T06:50:30;18.00;99.90
2407;DHT22;37709;53.480;9.688;2023-04-24T06:52:57;19.20;96.10
2407;DHT22;37709;53.480;9.688;2023-04-24T06:55:25;19.80;94.60
2407;DHT22;37709;53.480;9.688;2023-04-24T06:57:53;20.90;92.00
2407;DHT22;37709;53.480;9.688;2023-04-24T07:00:20;21.50;89.40
2407;DHT22;37709;53.480;9.688;2023-04-24T07:02:48;21.20;88.00
2407;DHT22;37709;53.480;9.688;2023-04-24T07:05:16;20.90;85.90
2407;DHT22;37709;53.480;9.688;2023-04-24T07:07:47;20.90;86.80
2407;DHT22;37709;53.480;9.688;2023-04-24T07:10:15;21.10;84.40
2407;DHT22;37709;53.480;9.688;2023-04-24T07:12:43;21.60;86.00
2407;DHT22;37709;53.480;9.688;2023-04-24T07:15:11;20.40;83.40
2407;DHT22;37709;53.480;9.688;2023-04-24T07:17:38;20.10;86.60
2407;DHT22;37709;53.480;9.688;2023-04-24T07:20:06;21.40;81.20
2407;DHT22;37709;53.480;9.688;2023-04-24T07:22:37;22.30;80.70
2407;DHT22;37709;53.480;9.688;2023-04-24T07:25:05;22.20;78.70
2407;DHT22;37709;53.480;9.688;2023-04-24T07:27:33;22.10;78.60
2407;DHT22;37709;53.480;9.688;2023-04-24T07:30:01;22.90;77.70
2407;DHT22;37709;53.480;9.688;2023-04-24T07:32:29;23.00;75.70
2407;DHT22;37709;53.480;9.688;2023-04-24T07:34:56;21.30;80.30
2407;DHT22;37709;53.480;9.688;2023-04-24T07:37:24;20.30;80.00
2407;DHT22;37709;53.480;9.688;2023-04-24T07:39:51;21.20;80.20
2407;DHT22;37709;53.480;9.688;2023-04-24T07:42:18;20.50;79.00
2407;DHT22;37709;53.480;9.688;2023-04-24T07:44:46;20.10;79.80
2407;DHT22;37709;53.480;9.688;2023-04-24T07:47:15;21.50;79.10
2407;DHT22;37709;53.480;9.688;2023-04-24T07:49:44;21.60;76.50
2407;DHT22;37709;53.480;9.688;2023-04-24T07:52:13;19.70;79.40
2407;DHT22;37709;53.480;9.688;2023-04-24T07:54:40;18.60;81.70
2407;DHT22;37709;53.480;9.688;2023-04-24T07:57:08;17.90;82.20
2407;DHT22;37709;53.480;9.688;2023-04-24T07:59:35;18.20;83.60
2407;DHT22;37709;53.480;9.688;2023-04-24T08:02:03;18.80;82.40
2407;DHT22;37709;53.480;9.688;2023-04-24T08:04:30;18.20;82.90
2407;DHT22;37709;53.480;9.688;2023-04-24T08:06:58;17.90;82.50
2407;DHT22;37709;53.480;9.688;2023-04-24T08:09:26;16.90;83.00
2407;DHT22;37709;53.480;9.688;2023-04-24T08:11:54;16.10;85.10
2407;DHT22;37709;53.480;9.688;2023-04-24T08:14:24;15.90;85.70
2407;DHT22;37709;53.480;9.688;2023-04-24T08:16:54;15.60;86.10
2407;DHT22;37709;53.480;9.688;2023-04-24T08:19:22;15.20;88.10
2407;DHT22;37709;53.480;9.688;2023-04-24T08:21:49;15.00;90.30
2407;DHT22;37709;53.480;9.688;2023-04-24T08:24:17;14.90;91.00
2407;DHT22;37709;53.480;9.688;2023-04-24T08:26:44;15.00;90.90
2407;DHT22;37709;53.480;9.688;2023-04-24T08:29:11;15.30;91.00
2407;DHT22;37709;53.480;9.688;2023-04-24T08:31:38;15.60;90.70
2407;DHT22;37709;53.480;9.688;2023-04-24T08:34:06;15.50;91.10
2407;DHT22;37709;53.480;9.688;2023-04-24T08:36:33;16.00;90.90
2407;DHT22;37709;53.480;9.688;2023-04-24T08:39:14;16.20;90.40
2407;DHT22;37709;53.480;9.688;2023-04-24T08:41:42;15.80;90.80
2407;DHT22;37709;53.480;9.688;2023-04-24T08:44:13;15.80;91.10
2407;DHT22;37709;53.480;9.688;2023-04-24T08:46:43;15.70;91.20
2407;DHT22;37709;53.480;9.688;2023-04-24T08:49:14;15.80;91.00
2407;DHT22;37709;53.480;9.688;2023-04-24T08:51:44;15.60;91.10
2407;DHT22;37709;53.480;9.688;2023-04-24T08:54:12;15.30;91.30
2407;DHT22;37709;53.480;9.688;2023-04-24T08:56:43;15.00;91.60
2407;DHT22;37709;53.480;9.688;2023-04-24T08:59:11;15.10;92.60
2407;DHT22;37709;53.480;9.688;2023-04-24T09:01:40;14.90;91.90
2407;DHT22;37709;53.480;9.688;2023-04-24T09:04:09;14.80;92.00
2407;DHT22;37709;53.480;9.688;2023-04-24T09:06:38;15.10;92.70
2407;DHT22;37709;53.480;9.688;2023-04-24T09:09:06;15.70;91.70
2407;DHT22;37709;53.480;9.688;2023-04-24T09:11:34;15.70;91.00
2407;DHT22;37709;53.480;9.688;2023-04-24T09:14:02;15.60;91.20
2407;DHT22;37709;53.480;9.688;2023-04-24T09:16:31;15.20;91.70
2407;DHT22;37709;53.480;9.688;2023-04-24T09:19:02;15.10;92.40
2407;DHT22;37709;53.480;9.688;2023-04-24T09:21:33;14.80;92.30
2407;DHT22;37709;53.480;9.688;2023-04-24T09:24:04;15.20;92.30
2407;DHT22;37709;53.480;9.688;2023-04-24T09:26:33;15.60;91.40
2407;DHT22;37709;53.480;9.688;2023-04-24T09:29:02;16.00;91.10
2407;DHT22;37709;53.480;9.688;2023-04-24T09:31:31;16.00;90.80
2407;DHT22;37709;53.480;9.688;2023-04-24T09:34:03;15.60;91.20
2407;DHT22;37709;53.480;9.688;2023-04-24T09:36:40;15.10;91.80
2407;DHT22;37709;53.480;9.688;2023-04-24T09:39:10;15.50;92.30
2407;DHT22;37709;53.480;9.688;2023-04-24T09:44:17;16.00;91.40
2407;DHT22;37709;53.480;9.688;2023-04-24T09:46:49;16.00;90.90
2407;DHT22;37709;53.480;9.688;2023-04-24T09:49:23;16.30;91.10
2407;DHT22;37709;53.480;9.688;2023-04-24T09:51:51;17.20;90.50
2407;DHT22;37709;53.480;9.688;2023-04-24T09:54:21;17.00;90.30
2407;DHT22;37709;53.480;9.688;2023-04-24T09:56:50;17.40;90.00
2407;DHT22;37709;53.480;9.688;2023-04-24T09:59:19;17.50;89.70
2407;DHT22;37709;53.480;9.688;2023-04-24T10:01:46;17.30;88.80
2407;DHT22;37709;53.480;9.688;2023-04-24T10:04:26;16.60;89.40
2407;DHT22;37709;53.480;9.688;2023-04-24T10:06:55;16.20;90.50
2407;DHT22;37709;53.480;9.688;2023-04-24T10:09:26;16.20;90.90
2407;DHT22;37709;53.480;9.688;2023-04-24T10:11:54;16.30;90.90
2407;DHT22;37709;53.480;9.688;2023-04-24T10:14:25;17.80;89.70
2407;DHT22;37709;53.480;9.688;2023-04-24T10:16:54;19.00;86.50
2407;DHT22;37709;53.480;9.688;2023-04-24T10:19:25;20.00;84.40
2407;DHT22;37709;53.480;9.688;2023-04-24T10:21:52;22.10;81.60
2407;DHT22;37709;53.480;9.688;2023-04-24T10:24:20;25.80;74.30
2407;DHT22;37709;53.480;9.688;2023-04-24T10:26:48;25.50;69.60
2407;DHT22;37709;53.480;9.688;2023-04-24T10:29:17;25.00;70.70
2407;DHT22;37709;53.480;9.688;2023-04-24T10:31:45;24.60;67.70
2407;DHT22;37709;53.480;9.688;2023-04-24T10:34:15;21.80;70.10
2407;DHT22;37709;53.480;9.688;2023-04-24T10:36:55;19.40;75.10
2407;DHT22;37709;53.480;9.688;2023-04-24T10:39:24;18.60;79.10
2407;DHT22;37709;53.480;9.688;2023-04-24T10:41:55;18.30;79.30
2407;DHT22;37709;53.480;9.688;2023-04-24T10:44:24;18.10;79.00
2407;DHT22;37709;53.480;9.688;2023-04-24T10:46:55;17.50;80.30
2407;DHT22;37709;53.480;9.688;2023-04-24T10:49:31;17.10;81.00
2407;DHT22;37709;53.480;9.688;2023-04-24T10:52:01;16.70;81.70
2407;DHT22;37709;53.480;9.688;2023-04-24T10:54:44;16.20;83.30
2407;DHT22;37709;53.480;9.688;2023-04-24T11:00:09;15.10;87.30
2407;DHT22;37709;53.480;9.688;2023-04-24T11:02:38;15.30;88.20
2407;DHT22;37709;53.480;9.688;2023-04-24T11:05:07;15.30;86.50
2407;DHT22;37709;53.480;9.688;2023-04-24T11:08:09;15.10;87.60
2407;DHT22;37709;53.480;9.688;2023-04-24T11:10:47;15.10;87.60
2407;DHT22;37709;53.480;9.688;2023-04-24T11:13:22;14.80;86.80
2407;DHT22;37709;53.480;9.688;2023-04-24T11:16:13;14.80;87.90
2407;DHT22;37709;53.480;9.688;2023-04-24T11:18:42;15.20;88.40
2407;DHT22;37709;53.480;9.688;2023-04-24T11:21:13;15.50;87.60
2407;DHT22;37709;53.480;9.688;2023-04-24T11:23:40;15.70;87.00
2407;DHT22;37709;53.480;9.688;2023-04-24T11:26:19;16.00;87.10
2407;DHT22;37709;53.480;9.688;2023-04-24T11:28:48;15.80;86.00
2407;DHT22;37709;53.480;9.688;2023-04-24T11:31:38;15.40;86.40
2407;DHT22;37709;53.480;9.688;2023-04-24T11:34:07;15.00;88.20
2407;DHT22;37709;53.480;9.688;2023-04-24T11:36:36;14.80;88.00
2407;DHT22;37709;53.480;9.688;2023-04-24T11:39:28;14.70;87.20
2407;DHT22;37709;53.480;9.688;2023-04-24T11:42:02;14.90;87.20
2407;DHT22;37709;53.480;9.688;2023-04-24T11:44:34;14.90;87.40
2407;DHT22;37709;53.480;9.688;2023-04-24T11:47:05;14.90;87.20
2407;DHT22;37709;53.480;9.688;2023-04-24T11:49:33;15.00;88.40
2407;DHT22;37709;53.480;9.688;2023-04-24T11:52:00;14.70;87.80
2407;DHT22;37709;53.480;9.688;2023-04-24T11:54:29;14.50;89.20
2407;DHT22;37709;53.480;9.688;2023-04-24T11:56:57;14.10;89.40
2407;DHT22;37709;53.480;9.688;2023-04-24T11:59:24;14.30;89.50
2407;DHT22;37709;53.480;9.688;2023-04-24T12:01:54;14.50;89.50
2407;DHT22;37709;53.480;9.688;2023-04-24T12:04:21;14.90;89.60
2407;DHT22;37709;53.480;9.688;2023-04-24T12:07:04;15.00;88.10
2407;DHT22;37709;53.480;9.688;2023-04-24T12:12:15;14.50;89.50
2407;DHT22;37709;53.480;9.688;2023-04-24T12:14:48;14.30;90.00
2407;DHT22;37709;53.480;9.688;2023-04-24T12:17:16;13.90;90.10
2407;DHT22;37709;53.480;9.688;2023-04-24T12:19:47;13.70;90.90
2407;DHT22;37709;53.480;9.688;2023-04-24T12:22:15;13.40;91.50
2407;DHT22;37709;53.480;9.688;2023-04-24T12:25:01;13.10;92.10
2407;DHT22;37709;53.480;9.688;2023-04-24T12:27:33;12.90;92.60
2407;DHT22;37709;53.480;9.688;2023-04-24T12:30:14;12.80;93.00
2407;DHT22;37709;53.480;9.688;2023-04-24T12:32:47;12.80;93.00
2407;DHT22;37709;53.480;9.688;2023-04-24T12:35:19;12.80;93.40
2407;DHT22;37709;53.480;9.688;2023-04-24T12:37:47;12.80;93.30
2407;DHT22;37709;53.480;9.688;2023-04-24T12:40:16;12.80;93.10
2407;DHT22;37709;53.480;9.688;2023-04-24T12:42:49;12.60;93.10
2407;DHT22;37709;53.480;9.688;2023-04-24T12:45:17;12.50;93.40
2407;DHT22;37709;53.480;9.688;2023-04-24T12:47:46;12.40;93.50
2407;DHT22;37709;53.480;9.688;2023-04-24T12:50:14;12.40;94.00
2407;DHT22;37709;53.480;9.688;2023-04-24T12:52:42;12.50;94.00
2407;DHT22;37709;53.480;9.688;2023-04-24T12:55:11;12.50;93.80
2407;DHT22;37709;53.480;9.688;2023-04-24T12:57:39;12.60;94.10
2407;DHT22;37709;53.480;9.688;2023-04-24T13:00:08;12.70;94.50
2407;DHT22;37709;53.480;9.688;2023-04-24T13:02:36;12.60;94.90
2407;DHT22;37709;53.480;9.688;2023-04-24T13:05:04;12.70;95.40
2407;DHT22;37709;53.480;9.688;2023-04-24T13:07:32;12.90;95.30
2407;DHT22;37709;53.480;9.688;2023-04-24T13:09:59;13.10;95.20
2407;DHT22;37709;53.480;9.688;2023-04-24T13:12:27;13.10;95.00
2407;DHT22;37709;53.480;9.688;2023-04-24T13:14:54;12.90;95.00
2407;DHT22;37709;53.480;9.688;2023-04-24T13:17:22;13.00;95.20
2407;DHT22;37709;53.480;9.688;2023-04-24T13:19:51;12.80;95.40
2407;DHT22;37709;53.480;9.688;2023-04-24T13:22:18;12.70;95.40
2407;DHT22;37709;53.480;9.688;2023-04-24T13:24:46;12.70;95.50
2407;DHT22;37709;53.480;9.688;2023-04-24T13:27:16;13.00;95.70
2407;DHT22;37709;53.480;9.688;2023-04-24T13:29:43;13.40;95.00
2407;DHT22;37709;53.480;9.688;2023-04-24T13:32:10;13.80;94.40
2407;DHT22;37709;53.480;9.688;2023-04-24T13:34:38;14.20;93.90
2407;DHT22;37709;53.480;9.688;2023-04-24T13:37:06;14.60;92.90
2407;DHT22;37709;53.480;9.688;2023-04-24T13:39:33;14.70;92.30
2407;DHT22;37709;53.480;9.688;2023-04-24T13:42:01;14.50;92.30
2407;DHT22;37709;53.480;9.688;2023-04-24T13:44:31;14.20;93.50
2407;DHT22;37709;53.480;9.688;2023-04-24T13:46:59;13.90;94.10
2407;DHT22;37709;53.480;9.688;2023-04-24T13:49:28;13.80;94.90
2407;DHT22;37709;53.480;9.688;2023-04-24T13:51:56;13.40;95.00
2407;DHT22;37709;53.480;9.688;2023-04-24T13:54:24;12.90;95.10
2407;DHT22;37709;53.480;9.688;2023-04-24T13:56:53;12.50;96.30
2407;DHT22;37709;53.480;9.688;2023-04-24T13:59:20;12.30;97.50
2407;DHT22;37709;53.480;9.688;2023-04-24T14:01:50;12.10;99.50
2407;DHT22;37709;53.480;9.688;2023-04-24T14:04:18;11.90;99.90
2407;DHT22;37709;53.480;9.688;2023-04-24T14:06:45;11.60;99.90
2407;DHT22;37709;53.480;9.688;2023-04-24T14:09:12;11.30;99.90
2407;DHT22;37709;53.480;9.688;2023-04-24T14:11:40;11.20;99.90
2407;DHT22;37709;53.480;9.688;2023-04-24T14:14:08;11.30;99.90
2407;DHT22;37709;53.480;9.688;2023-04-24T14:16:35;11.10;99.90
2407;DHT22;37709;53.480;9.688;2023-04-24T14:19:03;10.90;99.90
2407;DHT22;37709;53.480;9.688;2023-04-24T14:21:33;10.80;99.90
2407;DHT22;37709;53.480;9.688;2023-04-24T14:24:00;10.70;99.90
2407;DHT22;37709;53.480;9.688;2023-04-24T14:26:28;10.70;99.90
2407;DHT22;37709;53.480;9.688;2023-04-24T14:28:55;10.70;99.90
2407;DHT22;37709;53.480;9.688;2023-04-24T14:31:39;10.50;99.90
2407;DHT22;37709;53.480;9.688;2023-04-24T14:34:08;10.10;99.90
2407;DHT22;37709;53.480;9.688;2023-04-24T14:36:36;9.80;99.90
2407;DHT22;37709;53.480;9.688;2023-04-24T14:39:03;9.70;99.90
2407;DHT22;37709;53.480;9.688;2023-04-24T14:41:34;9.70;99.90
2407;DHT22;37709;53.480;9.688;2023-04-24T14:44:03;9.60;99.90
2407;DHT22;37709;53.480;9.688;2023-04-24T14:46:31;9.60;99.90
2407;DHT22;37709;53.480;9.688;2023-04-24T14:48:59;9.60;99.90
2407;DHT22;37709;53.480;9.688;2023-04-24T14:51:26;9.60;99.90
2407;DHT22;37709;53.480;9.688;2023-04-24T14:53:54;9.70;99.90
2407;DHT22;37709;53.480;9.688;2023-04-24T14:56:23;10.10;99.90
2407;DHT22;37709;53.480;9.688;2023-04-24T14:58:51;10.20;99.90
2407;DHT22;37709;53.480;9.688;2023-04-24T15:01:18;10.30;99.90
2407;DHT22;37709;53.480;9.688;2023-04-24T15:03:46;10.40;99.90
2407;DHT22;37709;53.480;9.688;2023-04-24T15:06:14;10.20;99.90
2407;DHT22;37709;53.480;9.688;2023-04-24T15:08:41;10.10;99.90
2407;DHT22;37709;53.480;9.688;2023-04-24T15:11:10;10.00;99.90
2407;DHT22;37709;53.480;9.688;2023-04-24T15:13:37;9.90;99.90
2407;DHT22;37709;53.480;9.688;2023-04-24T15:16:05;9.80;99.90
2407;DHT22;37709;53.480;9.688;2023-04-24T15:18:32;9.60;99.90
2407;DHT22;37709;53.480;9.688;2023-04-24T15:20:59;9.50;99.90
2407;DHT22;37709;53.480;9.688;2023-04-24T15:23:26;9.30;99.90
2407;DHT22;37709;53.480;9.688;2023-04-24T15:25:54;9.10;99.90
2407;DHT22;37709;53.480;9.688;2023-04-24T15:28:21;9.00;99.90
2407;DHT22;37709;53.480;9.688;2023-04-24T15:30:49;8.90;99.90
2407;DHT22;37709;53.480;9.688;2023-04-24T15:33:16;8.80;99.90
2407;DHT22;37709;53.480;9.688;2023-04-24T15:35:44;8.80;99.90
2407;DHT22;37709;53.480;9.688;2023-04-24T15:38:12;8.60;99.90
2407;DHT22;37709;53.480;9.688;2023-04-24T15:40:39;8.60;99.90
2407;DHT22;37709;53.480;9.688;2023-04-24T15:43:06;8.60;99.90
2407;DHT22;37709;53.480;9.688;2023-04-24T15:45:34;8.50;99.90
2407;DHT22;37709;53.480;9.688;2023-04-24T15:48:02;8.40;99.90
2407;DHT22;37709;53.480;9.688;2023-04-24T15:50:29;8.40;99.90
2407;DHT22;37709;53.480;9.688;2023-04-24T15:52:57;8.40;99.90
2407;DHT22;37709;53.480;9.688;2023-04-24T15:55:24;8.40;99.90
2407;DHT22;37709;53.480;9.688;2023-04-24T15:57:51;8.20;99.90
2407;DHT22;37709;53.480;9.688;2023-04-24T16:00:19;8.10;99.90
2407;DHT22;37709;53.480;9.688;2023-04-24T16:02:47;8.10;99.90
2407;DHT22;37709;53.480;9.688;2023-04-24T16:05:16;7.90;99.90
2407;DHT22;37709;53.480;9.688;2023-04-24T16:07:46;7.90;99.90
2407;DHT22;37709;53.480;9.688;2023-04-24T16:10:13;7.80;99.90
2407;DHT22;37709;53.480;9.688;2023-04-24T16:12:41;7.80;99.90
2407;DHT22;37709;53.480;9.688;2023-04-24T16:15:08;7.90;99.90